createdAt,value
2023-04-27T21:29:17.098Z,100418.09
2023-04-27T21:31:44.212Z,100414.89
2023-04-27T21:34:11.267Z,100410.28
2023-04-27T21:36:39.412Z,100408.52
2023-04-27T21:39:06.585Z,100409.58
2023-04-27T21:41:39.390Z,100407.55
2023-04-27T21:44:06.424Z,100405.25
2023-04-27T21:46:37.170Z,100405.68
2023-04-27T21:49:04.501Z,100402.30
2023-04-27T21:51:32.711Z,100406.86
2023-04-27T21:54:00.027Z,100403.10
2023-04-27T21:56:28.815Z,100404.89
2023-04-27T21:58:56.125Z,100407.09
2023-04-27T22:01:23.816Z,100403.17
2023-04-27T22:03:53.897Z,100404.44
2023-04-27T22:06:22.086Z,100403.00
2023-04-27T22:08:49.167Z,100405.15
2023-04-27T22:11:18.132Z,100409.59
2023-04-27T22:13:47.492Z,100406.59
2023-04-27T22:16:14.598Z,100402.58
2023-04-27T22:18:41.679Z,100399.48
2023-04-27T22:21:14.920Z,100400.76
2023-04-27T22:23:41.996Z,100398.94
2023-04-27T22:26:13.228Z,100397.91
2023-04-27T22:28:40.222Z,100391.98
2023-04-27T22:31:07.928Z,100394.60
2023-04-27T22:33:41.776Z,100397.23
2023-04-27T22:36:10.045Z,100394.06
2023-04-27T22:38:37.053Z,100393.80
2023-04-27T22:41:04.317Z,100391.77
2023-04-27T22:43:31.403Z,100387.48
2023-04-27T22:45:58.438Z,100392.85
2023-04-27T22:48:26.609Z,100391.98
2023-04-27T22:50:55.766Z,100393.95
2023-04-27T22:53:23.012Z,100392.58
2023-04-27T22:55:51.480Z,100391.98
2023-04-27T22:58:18.572Z,100393.27
2023-04-27T23:00:45.768Z,100395.08
2023-04-27T23:03:13.596Z,100393.06
2023-04-27T23:05:43.959Z,100390.70
2023-04-27T23:08:11.078Z,100389.41
2023-04-27T23:10:39.053Z,100390.16
2023-04-27T23:13:07.497Z,100396.16
2023-04-27T23:15:34.560Z,100397.34
2023-04-27T23:18:02.252Z,100395.77
2023-04-27T23:20:29.475Z,100399.58
2023-04-27T23:22:58.070Z,100394.59
2023-04-27T23:25:25.191Z,100390.96
2023-04-27T23:27:56.411Z,100389.25
2023-04-27T23:30:25.023Z,100389.98
2023-04-27T23:32:52.538Z,100391.66
2023-04-27T23:35:22.547Z,100390.60
2023-04-27T23:37:58.292Z,100389.94
2023-04-27T23:40:27.512Z,100387.92
2023-04-27T23:42:54.508Z,100387.92
2023-04-27T23:45:23.105Z,100389.45
2023-04-27T23:47:52.774Z,100392.30
2023-04-27T23:50:20.325Z,100388.18
2023-04-27T23:52:47.932Z,100385.91
2023-04-27T23:55:17.547Z,100388.90
2023-04-27T23:57:45.006Z,100390.80
